createdAt,value
2023-05-24T00:00:46.582Z,44.70
2023-05-24T00:03:15.517Z,44.83
2023-05-24T00:05:46.794Z,45.39
2023-05-24T00:08:15.966Z,45.29
2023-05-24T00:10:43.893Z,45.42
2023-05-24T00:13:12.305Z,45.24
2023-05-24T00:15:40.175Z,45.37
2023-05-24T00:18:10.858Z,45.68
2023-05-24T00:20:41.843Z,45.78
2023-05-24T00:25:39.203Z,45.77
2023-05-24T00:28:06.913Z,45.92
2023-05-24T00:30:34.833Z,45.99
2023-05-24T00:33:02.606Z,45.94
2023-05-24T00:35:30.614Z,46.00
2023-05-24T00:37:58.439Z,46.12
2023-05-24T00:40:26.315Z,46.25
2023-05-24T00:42:55.622Z,46.47
2023-05-24T00:45:23.328Z,46.59
2023-05-24T00:47:51.158Z,46.44
2023-05-24T00:50:19.401Z,46.84
2023-05-24T00:52:47.685Z,46.75
2023-05-24T00:55:15.566Z,46.95
2023-05-24T00:57:43.928Z,47.06
2023-05-24T01:00:14.194Z,47.30
2023-05-24T01:02:42.523Z,47.09
2023-05-24T01:05:13.685Z,47.05
2023-05-24T01:07:47.054Z,47.54
2023-05-24T01:10:17.909Z,47.21
2023-05-24T01:12:52.804Z,47.49
2023-05-24T01:15:26.192Z,47.76
2023-05-24T01:18:01.866Z,47.29
2023-05-24T01:20:30.673Z,47.82
2023-05-24T01:23:20.965Z,47.82
2023-05-24T01:26:03.866Z,47.47
2023-05-24T01:28:33.225Z,47.96
2023-05-24T01:31:01.241Z,47.92
2023-05-24T01:33:29.274Z,47.92
2023-05-24T01:35:56.971Z,48.14
2023-05-24T01:38:24.766Z,48.18
2023-05-24T01:40:59.233Z,48.16
2023-05-24T01:43:30.432Z,48.24
2023-05-24T01:46:02.997Z,48.34
2023-05-24T01:48:34.642Z,48.68
2023-05-24T01:51:03.000Z,48.86
2023-05-24T01:53:34.172Z,48.66
2023-05-24T01:56:02.880Z,48.35
2023-05-24T01:58:31.204Z,48.63
2023-05-24T02:01:00.547Z,48.84
2023-05-24T02:03:28.261Z,48.84
2023-05-24T02:05:56.118Z,48.85
2023-05-24T02:08:24.961Z,48.96
2023-05-24T02:10:52.676Z,48.96
2023-05-24T02:13:20.872Z,49.12
2023-05-24T02:15:48.668Z,49.18
2023-05-24T02:18:18.843Z,49.27
2023-05-24T02:20:47.044Z,49.34
2023-05-24T02:23:14.850Z,49.27
2023-05-24T02:25:42.541Z,49.38
2023-05-24T02:28:10.429Z,49.40
2023-05-24T02:30:39.582Z,49.60
2023-05-24T02:33:07.441Z,49.93
2023-05-24T02:35:36.738Z,49.86
2023-05-24T02:38:06.660Z,49.89
2023-05-24T02:40:34.775Z,50.05
2023-05-24T02:43:02.627Z,50.00
2023-05-24T02:45:30.462Z,50.17
2023-05-24T02:47:58.224Z,50.34
2023-05-24T02:50:26.085Z,50.29
2023-05-24T02:52:55.329Z,50.71
2023-05-24T02:55:24.176Z,50.63
2023-05-24T02:57:52.798Z,50.79
2023-05-24T03:00:22.222Z,50.70
2023-05-24T03:02:51.148Z,50.67
2023-05-24T03:05:19.117Z,50.73
2023-05-24T03:07:47.190Z,50.69
2023-05-24T03:10:16.425Z,51.14
2023-05-24T03:12:44.154Z,51.06
2023-05-24T03:15:12.536Z,50.95
2023-05-24T03:17:40.254Z,50.92
2023-05-24T03:20:09.224Z,51.24
2023-05-24T03:22:37.002Z,51.40
2023-05-24T03:25:05.020Z,51.53
2023-05-24T03:27:34.291Z,51.39
2023-05-24T03:30:01.985Z,51.29
2023-05-24T03:32:29.830Z,51.87
2023-05-24T03:34:59.494Z,51.90
2023-05-24T03:37:27.226Z,51.57
2023-05-24T03:39:55.129Z,51.62
2023-05-24T03:42:22.852Z,51.51
2023-05-24T03:44:51.909Z,51.71
2023-05-24T03:47:19.845Z,51.87
2023-05-24T03:49:47.590Z,52.27
2023-05-24T03:52:15.411Z,52.25
2023-05-24T03:54:43.196Z,52.05
2023-05-24T03:57:10.881Z,52.05
2023-05-24T03:59:40.486Z,51.89
2023-05-24T04:02:10.719Z,51.97
2023-05-24T04:04:38.678Z,51.99
2023-05-24T04:07:07.918Z,52.58
2023-05-24T04:09:35.871Z,52.46
2023-05-24T04:12:03.655Z,52.52
2023-05-24T04:14:33.779Z,52.25
2023-05-24T04:17:04.061Z,52.00
2023-05-24T04:19:33.442Z,52.08
2023-05-24T04:22:01.171Z,52.11
2023-05-24T04:24:28.983Z,51.82
2023-05-24T04:26:58.273Z,52.12
2023-05-24T04:29:26.650Z,52.17
2023-05-24T04:31:56.047Z,52.19
2023-05-24T04:34:24.024Z,52.22
2023-05-24T04:36:53.453Z,52.18
2023-05-24T04:39:21.173Z,52.19
2023-05-24T04:41:51.185Z,52.14
2023-05-24T04:44:19.833Z,52.06
2023-05-24T04:46:47.735Z,51.67
2023-05-24T04:49:15.498Z,51.96
2023-05-24T04:51:43.461Z,52.04
2023-05-24T04:54:13.086Z,51.99
2023-05-24T04:56:42.953Z,51.88
2023-05-24T04:59:10.980Z,51.94
2023-05-24T05:01:38.792Z,51.68
2023-05-24T05:04:07.428Z,51.81
2023-05-24T05:06:38.774Z,51.57
2023-05-24T05:09:09.214Z,51.37
2023-05-24T05:11:39.026Z,51.26
2023-05-24T05:14:09.865Z,51.38
2023-05-24T05:16:38.649Z,51.77
2023-05-24T05:19:07.099Z,51.33
2023-05-24T05:21:35.200Z,51.22
2023-05-24T05:24:03.569Z,51.65
2023-05-24T05:27:13.847Z,51.12
2023-05-24T05:29:41.755Z,50.79
2023-05-24T05:33:05.816Z,50.33
2023-05-24T05:35:33.823Z,50.81
2023-05-24T05:38:01.976Z,50.12
2023-05-24T05:40:29.874Z,50.16
2023-05-24T05:42:59.326Z,50.04
2023-05-24T05:45:27.467Z,49.81
2023-05-24T05:47:55.502Z,49.38
2023-05-24T05:50:23.576Z,49.43
2023-05-24T05:54:33.992Z,48.78
2023-05-24T05:56:11.697Z,49.38
2023-05-24T05:58:56.651Z,48.86
2023-05-24T06:01:24.636Z,47.77
2023-05-24T06:03:52.772Z,46.69
2023-05-24T06:06:22.572Z,45.86
2023-05-24T06:08:50.508Z,45.44
2023-05-24T06:11:18.516Z,44.35
2023-05-24T06:13:48.935Z,43.12
2023-05-24T06:16:21.286Z,41.44
2023-05-24T06:19:01.527Z,41.54
2023-05-24T06:21:36.637Z,40.70
2023-05-24T06:24:04.706Z,40.36
2023-05-24T06:26:32.475Z,40.30
2023-05-24T06:29:01.778Z,39.21
2023-05-24T06:31:29.840Z,38.43
2023-05-24T06:34:03.715Z,38.18
2023-05-24T06:36:45.655Z,37.26
2023-05-24T06:39:14.117Z,37.86
2023-05-24T06:41:45.388Z,38.34
2023-05-24T06:44:16.443Z,37.94
2023-05-24T06:46:44.464Z,37.51
2023-05-24T06:49:13.327Z,37.63
2023-05-24T06:51:41.540Z,37.98
2023-05-24T06:54:09.726Z,38.38
2023-05-24T06:56:38.517Z,38.33
2023-05-24T06:59:06.942Z,39.31
2023-05-24T07:01:39.726Z,39.55
2023-05-24T07:04:12.715Z,39.70
2023-05-24T07:06:40.872Z,40.25
2023-05-24T07:09:10.397Z,40.50
2023-05-24T07:11:39.046Z,40.00
2023-05-24T07:14:07.711Z,40.08
2023-05-24T07:16:38.338Z,39.09
2023-05-24T07:19:07.464Z,38.75
2023-05-24T07:21:36.180Z,38.87
2023-05-24T07:24:05.195Z,38.35
2023-05-24T07:26:33.360Z,38.11
2023-05-24T07:29:02.042Z,36.67
2023-05-24T07:31:32.577Z,36.62
2023-05-24T07:34:02.011Z,36.14
2023-05-24T07:36:34.886Z,36.00
2023-05-24T07:39:04.965Z,36.42
2023-05-24T07:41:33.667Z,37.04
2023-05-24T07:44:02.210Z,36.95
2023-05-24T07:46:30.193Z,37.02
2023-05-24T07:48:58.234Z,35.83
2023-05-24T07:51:27.658Z,35.71
2023-05-24T07:53:56.069Z,36.10
2023-05-24T07:56:24.826Z,35.95
2023-05-24T07:58:53.892Z,35.65
2023-05-24T08:01:22.806Z,36.41
2023-05-24T08:03:51.007Z,36.68
2023-05-24T08:06:19.156Z,36.90
2023-05-24T08:08:49.081Z,36.83
2023-05-24T08:11:17.064Z,36.81
2023-05-24T08:13:45.557Z,36.99
2023-05-24T08:16:13.771Z,36.79
2023-05-24T08:18:42.045Z,37.08
2023-05-24T08:21:11.845Z,37.87
2023-05-24T08:23:39.735Z,37.06
2023-05-24T08:26:09.266Z,35.82
2023-05-24T08:28:37.275Z,35.92
2023-05-24T08:31:06.372Z,35.98
2023-05-24T08:33:34.815Z,35.67
2023-05-24T08:36:02.794Z,35.52
2023-05-24T08:38:30.935Z,36.09
2023-05-24T08:40:58.981Z,35.73
2023-05-24T08:43:29.180Z,36.26
2023-05-24T08:45:59.448Z,36.50
2023-05-24T08:48:27.541Z,36.26
2023-05-24T08:50:55.450Z,35.22
2023-05-24T08:53:23.824Z,34.86
2023-05-24T08:55:53.281Z,34.38
2023-05-24T08:58:21.299Z,33.88
2023-05-24T09:00:51.129Z,33.77
2023-05-24T09:03:19.905Z,33.79
2023-05-24T09:05:47.912Z,33.75
2023-05-24T09:08:18.226Z,34.05
2023-05-24T09:10:54.636Z,33.80
2023-05-24T09:13:24.353Z,33.88
2023-05-24T09:15:54.149Z,33.63
2023-05-24T09:18:22.511Z,33.59
2023-05-24T09:20:50.577Z,33.54
2023-05-24T09:23:19.040Z,33.60
2023-05-24T09:25:50.484Z,33.19
2023-05-24T09:28:19.676Z,32.97
2023-05-24T09:31:03.333Z,32.86
2023-05-24T09:33:36.717Z,32.11
2023-05-24T09:36:09.809Z,32.35
2023-05-24T09:38:38.336Z,31.74
2023-05-24T09:41:08.730Z,31.67
2023-05-24T09:43:47.799Z,31.56
2023-05-24T09:46:18.906Z,31.63
2023-05-24T09:48:58.914Z,30.96
2023-05-24T09:51:27.071Z,30.67
2023-05-24T09:53:58.193Z,30.78
2023-05-24T09:56:26.239Z,30.83
2023-05-24T09:58:55.239Z,30.40
2023-05-24T10:01:24.598Z,30.49
2023-05-24T10:03:57.977Z,30.80
2023-05-24T10:06:26.323Z,31.08
2023-05-24T10:08:55.850Z,31.18
2023-05-24T10:11:24.419Z,31.08
2023-05-24T10:13:52.720Z,30.97
2023-05-24T10:16:20.753Z,31.31
2023-05-24T10:18:48.804Z,30.77
2023-05-24T10:21:18.902Z,31.19
2023-05-24T10:23:47.413Z,30.87
2023-05-24T10:26:16.116Z,30.25
2023-05-24T10:28:45.822Z,29.65
2023-05-24T10:31:15.775Z,29.20
2023-05-24T10:33:44.694Z,29.96
2023-05-24T10:36:16.189Z,29.43
2023-05-24T10:38:47.673Z,29.87
2023-05-24T10:41:16.493Z,29.85
2023-05-24T10:43:53.452Z,29.52
2023-05-24T10:46:29.401Z,29.84
2023-05-24T10:49:00.937Z,29.26
2023-05-24T10:51:39.087Z,30.06
2023-05-24T10:54:16.570Z,29.74
2023-05-24T10:56:46.240Z,30.32
2023-05-24T10:59:24.972Z,30.38
2023-05-24T11:01:56.677Z,30.71
2023-05-24T11:04:25.363Z,30.79
2023-05-24T11:06:56.446Z,31.19
2023-05-24T11:09:27.708Z,31.40
2023-05-24T11:11:57.419Z,31.87
2023-05-24T11:14:26.032Z,32.07
2023-05-24T11:16:54.501Z,32.67
2023-05-24T11:19:23.600Z,32.73
2023-05-24T11:21:52.052Z,32.90
2023-05-24T11:24:20.653Z,33.15
2023-05-24T11:26:50.222Z,33.44
2023-05-24T11:29:21.197Z,33.42
2023-05-24T11:31:51.523Z,33.58
2023-05-24T11:34:20.009Z,33.60
2023-05-24T11:36:48.311Z,33.60
2023-05-24T11:39:16.741Z,33.17
2023-05-24T11:41:48.671Z,33.51
2023-05-24T11:44:20.051Z,33.81
2023-05-24T11:46:48.239Z,33.40
2023-05-24T11:49:16.840Z,33.23
2023-05-24T11:51:44.920Z,32.78
2023-05-24T11:54:13.510Z,32.72
2023-05-24T11:56:41.744Z,32.31
2023-05-24T11:59:16.540Z,31.79
2023-05-24T12:01:45.942Z,31.75
2023-05-24T12:04:14.114Z,31.39
2023-05-24T12:06:42.846Z,31.20
2023-05-24T12:09:13.573Z,31.10
2023-05-24T12:11:44.404Z,30.44
2023-05-24T12:14:18.776Z,30.67
2023-05-24T12:16:48.449Z,29.76
2023-05-24T12:19:32.225Z,29.66
2023-05-24T12:22:02.145Z,29.79
2023-05-24T12:27:08.008Z,29.88
2023-05-24T12:29:36.570Z,30.21
2023-05-24T12:32:12.108Z,30.20
2023-05-24T12:34:42.079Z,30.75
2023-05-24T12:37:10.163Z,31.05
2023-05-24T12:39:44.968Z,31.25
2023-05-24T12:42:13.372Z,31.57
2023-05-24T12:44:41.803Z,31.35
2023-05-24T12:47:11.925Z,31.12
2023-05-24T12:49:39.808Z,31.32
2023-05-24T12:52:07.624Z,31.00
2023-05-24T12:54:35.591Z,31.80
2023-05-24T12:57:03.649Z,31.73
2023-05-24T12:59:31.608Z,31.80
2023-05-24T13:01:59.497Z,31.72
2023-05-24T13:04:34.098Z,31.80
2023-05-24T13:07:14.038Z,31.63
2023-05-24T13:09:42.052Z,31.73
2023-05-24T13:12:11.010Z,31.66
2023-05-24T13:14:45.145Z,31.90
2023-05-24T13:17:13.196Z,32.05
2023-05-24T13:19:43.656Z,31.97
2023-05-24T13:22:12.501Z,31.55
2023-05-24T13:24:40.510Z,31.90
2023-05-24T13:27:08.393Z,31.59
2023-05-24T13:29:45.636Z,31.55
2023-05-24T13:32:21.181Z,31.46
2023-05-24T13:34:52.866Z,31.56
2023-05-24T13:37:21.140Z,31.37
2023-05-24T13:41:05.768Z,31.54
2023-05-24T13:47:10.444Z,31.57
2023-05-24T13:49:38.294Z,31.80
2023-05-24T13:52:51.082Z,32.21
2023-05-24T13:55:27.372Z,32.63
2023-05-24T13:58:01.863Z,32.57
2023-05-24T14:00:29.810Z,32.54
2023-05-24T14:02:58.061Z,33.05
2023-05-24T14:05:29.220Z,32.15
2023-05-24T14:07:57.993Z,32.53
2023-05-24T14:10:30.083Z,32.59
2023-05-24T14:13:16.213Z,32.32
2023-05-24T14:15:56.618Z,32.21
2023-05-24T14:18:24.456Z,32.55
2023-05-24T14:20:56.369Z,32.05
2023-05-24T14:23:24.177Z,32.56
2023-05-24T14:25:53.444Z,32.23
2023-05-24T14:28:24.400Z,32.33
2023-05-24T14:30:52.139Z,32.32
2023-05-24T14:33:19.994Z,32.58
2023-05-24T14:35:50.650Z,32.64
2023-05-24T14:38:29.419Z,32.43
2023-05-24T14:40:59.700Z,32.18
2023-05-24T14:43:27.577Z,32.32
2023-05-24T14:45:55.665Z,32.12
2023-05-24T14:48:23.463Z,31.86
2023-05-24T14:51:01.593Z,32.22
2023-05-24T14:53:32.695Z,32.36
2023-05-24T14:56:03.856Z,32.25
2023-05-24T14:58:31.674Z,31.41
2023-05-24T15:00:59.501Z,31.53
2023-05-24T15:03:27.429Z,31.92
2023-05-24T15:05:55.385Z,31.98
2023-05-24T15:08:23.202Z,32.35
2023-05-24T15:11:01.565Z,32.30
2023-05-24T15:13:31.129Z,33.07
2023-05-24T15:16:00.781Z,32.91
2023-05-24T15:18:29.033Z,32.68
2023-05-24T15:20:56.982Z,33.20
2023-05-24T15:23:25.319Z,32.96
2023-05-24T15:25:53.116Z,32.89
2023-05-24T15:28:26.250Z,33.29
2023-05-24T15:30:57.289Z,33.51
2023-05-24T15:33:30.261Z,33.31
2023-05-24T15:36:01.373Z,33.36
2023-05-24T15:38:29.446Z,33.63
2023-05-24T15:40:57.655Z,33.75
2023-05-24T15:44:12.283Z,34.00
2023-05-24T15:46:42.645Z,34.35
2023-05-24T15:49:16.331Z,34.24
2023-05-24T15:52:03.510Z,34.56
2023-05-24T15:54:32.206Z,35.07
2023-05-24T15:57:00.675Z,35.08
2023-05-24T15:59:36.852Z,35.35
2023-05-24T16:02:29.919Z,35.30
2023-05-24T16:05:21.196Z,35.33
2023-05-24T16:08:04.494Z,35.41
2023-05-24T16:10:36.385Z,35.08
2023-05-24T16:17:09.071Z,35.09
2023-05-24T16:19:59.003Z,35.44
2023-05-24T16:22:53.261Z,34.76
2023-05-24T16:25:37.066Z,34.89
2023-05-24T16:28:28.307Z,35.18
2023-05-24T16:31:12.439Z,35.47
2023-05-24T16:51:03.339Z,35.85
2023-05-24T16:54:14.926Z,36.57
2023-05-24T16:56:46.424Z,37.12
2023-05-24T16:59:14.839Z,37.22
2023-05-24T17:02:38.002Z,37.36
2023-05-24T17:09:21.781Z,37.44
2023-05-24T17:12:53.352Z,37.78
2023-05-24T17:25:27.467Z,38.10
2023-05-24T17:27:56.952Z,38.25
2023-05-24T17:45:38.706Z,38.19
2023-05-24T17:48:39.273Z,38.09
2023-05-24T18:42:03.495Z,40.89
2023-05-24T18:44:26.752Z,41.30
2023-05-24T18:47:19.206Z,41.13
2023-05-24T18:50:05.422Z,41.30
2023-05-24T18:55:25.842Z,41.64
2023-05-24T18:58:15.114Z,41.40
2023-05-24T19:01:48.946Z,41.88
2023-05-24T19:04:30.075Z,41.78
2023-05-24T19:07:22.532Z,41.90
2023-05-24T19:10:20.830Z,42.15
2023-05-24T19:13:25.632Z,42.15
2023-05-24T19:16:08.354Z,42.25
2023-05-24T19:18:36.849Z,42.38
2023-05-24T19:21:05.709Z,43.08
2023-05-24T19:23:33.890Z,42.98
2023-05-24T19:26:06.503Z,42.70
2023-05-24T19:28:44.362Z,43.08
2023-05-24T19:50:52.276Z,44.20
2023-05-24T20:50:38.173Z,48.12
2023-05-24T20:53:11.361Z,48.47
2023-05-24T20:55:43.530Z,48.35
2023-05-24T20:58:12.577Z,48.25
2023-05-24T21:00:43.604Z,48.84
2023-05-24T21:03:13.206Z,48.96
2023-05-24T21:05:45.079Z,48.98
2023-05-24T21:08:33.906Z,48.92
2023-05-24T21:11:04.835Z,49.00
2023-05-24T21:13:33.668Z,49.29
2023-05-24T21:16:06.872Z,49.18
2023-05-24T21:18:39.377Z,49.76
2023-05-24T21:21:08.476Z,49.53
2023-05-24T21:24:25.435Z,49.60
2023-05-24T21:26:59.380Z,50.10
2023-05-24T21:29:30.634Z,49.71
2023-05-24T21:31:59.371Z,50.13
2023-05-24T21:34:28.330Z,49.97
2023-05-24T21:37:14.177Z,50.45
2023-05-24T21:39:44.071Z,50.72
2023-05-24T21:42:16.305Z,50.28
2023-05-24T21:44:45.066Z,50.35
2023-05-24T21:47:14.188Z,50.62
2023-05-24T21:49:50.792Z,50.96
2023-05-24T21:52:22.860Z,50.97
2023-05-24T21:54:51.754Z,50.90
2023-05-24T21:57:28.941Z,50.91
2023-05-24T21:59:56.767Z,50.94
2023-05-24T22:02:29.484Z,51.51
2023-05-24T22:04:58.485Z,51.09
2023-05-24T22:07:27.003Z,51.26
2023-05-24T22:10:09.299Z,51.78
2023-05-24T22:12:39.363Z,51.64
2023-05-24T22:15:10.078Z,51.95
2023-05-24T22:17:41.462Z,51.89
2023-05-24T22:20:16.527Z,52.47
2023-05-24T22:22:48.995Z,52.29
2023-05-24T22:25:20.849Z,51.75
2023-05-24T22:27:57.303Z,52.61
2023-05-24T22:30:26.696Z,52.33
2023-05-24T22:32:56.826Z,52.78
2023-05-24T22:35:26.644Z,52.42
2023-05-24T22:38:03.026Z,52.41
2023-05-24T22:50:33.475Z,53.16
2023-05-24T22:53:05.193Z,52.90
2023-05-24T22:55:33.038Z,53.10
2023-05-24T22:58:01.798Z,52.98
2023-05-24T23:00:29.595Z,53.06
2023-05-24T23:02:57.343Z,53.24
2023-05-24T23:05:25.355Z,53.27
2023-05-24T23:07:55.059Z,53.73
2023-05-24T23:10:23.899Z,53.74
2023-05-24T23:12:51.727Z,53.55
2023-05-24T23:15:19.568Z,53.30
2023-05-24T23:17:48.200Z,53.86
2023-05-24T23:20:17.346Z,53.57
2023-05-24T23:22:46.741Z,53.96
2023-05-24T23:25:16.129Z,53.77
2023-05-24T23:27:44.965Z,53.77
2023-05-24T23:30:14.021Z,54.24
2023-05-24T23:32:42.267Z,54.49
2023-05-24T23:35:10.581Z,54.49
2023-05-24T23:37:38.860Z,54.49
2023-05-24T23:40:11.019Z,54.00
2023-05-24T23:42:52.397Z,54.15
2023-05-24T23:45:20.384Z,54.19
2023-05-24T23:47:48.497Z,54.22
2023-05-24T23:50:17.490Z,54.20
2023-05-24T23:52:46.832Z,54.52
2023-05-24T23:55:14.905Z,54.34
2023-05-24T23:57:43.081Z,54.46
